sensor_id;sensor_type;location;lat;lon;timestamp;pressure;altitude;pressure_sealevel;temperature;humidity
78121;BME280;67585;44.802;10.332;2023-11-19T00:00:53;101620.91;;;10.09;51.96
78121;BME280;67585;44.802;10.332;2023-11-19T00:03:18;101614.50;;;10.21;51.38
78121;BME280;67585;44.802;10.332;2023-11-19T00:05:43;101596.22;;;10.12;51.54
78121;BME280;67585;44.802;10.332;2023-11-19T00:08:10;101637.59;;;10.29;51.82
78121;BME280;67585;44.802;10.332;2023-11-19T00:10:35;101630.91;;;10.20;51.82
78121;BME280;67585;44.802;10.332;2023-11-19T00:13:00;101618.28;;;9.90;52.48
78121;BME280;67585;44.802;10.332;2023-11-19T00:15:28;101620.66;;;10.40;51.75
78121;BME280;67585;44.802;10.332;2023-11-19T00:17:53;101596.94;;;10.19;51.67
78121;BME280;67585;44.802;10.332;2023-11-19T00:20:19;101643.53;;;10.19;51.74
78121;BME280;67585;44.802;10.332;2023-11-19T00:22:47;101636.69;;;10.35;51.41
78121;BME280;67585;44.802;10.332;2023-11-19T00:25:20;101620.25;;;10.25;51.21
78121;BME280;67585;44.802;10.332;2023-11-19T00:27:46;101651.72;;;10.66;51.92
78121;BME280;67585;44.802;10.332;2023-11-19T00:30:12;101656.25;;;10.42;51.92
78121;BME280;67585;44.802;10.332;2023-11-19T00:32:38;101620.41;;;10.30;51.31
78121;BME280;67585;44.802;10.332;2023-11-19T00:35:05;101642.91;;;10.47;51.17
78121;BME280;67585;44.802;10.332;2023-11-19T00:37:31;101625.28;;;10.21;51.31
78121;BME280;67585;44.802;10.332;2023-11-19T00:39:56;101637.91;;;10.21;51.17
78121;BME280;67585;44.802;10.332;2023-11-19T00:42:22;101616.69;;;10.01;52.10
78121;BME280;67585;44.802;10.332;2023-11-19T00:44:50;101621.81;;;9.91;52.07
78121;BME280;67585;44.802;10.332;2023-11-19T00:47:15;101620.94;;;10.20;52.34
78121;BME280;67585;44.802;10.332;2023-11-19T00:49:40;101612.00;;;9.96;52.30
78121;BME280;67585;44.802;10.332;2023-11-19T00:52:06;101606.09;;;9.76;52.61
78121;BME280;67585;44.802;10.332;2023-11-19T00:54:32;101630.44;;;9.81;53.53
78121;BME280;67585;44.802;10.332;2023-11-19T00:56:57;101606.53;;;9.73;52.70
78121;BME280;67585;44.802;10.332;2023-11-19T00:59:22;101644.25;;;10.15;52.96
78121;BME280;67585;44.802;10.332;2023-11-19T01:01:48;101605.97;;;9.82;52.67
78121;BME280;67585;44.802;10.332;2023-11-19T01:04:14;101636.66;;;9.81;52.86
78121;BME280;67585;44.802;10.332;2023-11-19T01:06:40;101641.16;;;9.69;53.29
78121;BME280;67585;44.802;10.332;2023-11-19T01:09:07;101643.47;;;9.66;54.75
78121;BME280;67585;44.802;10.332;2023-11-19T01:11:34;101637.25;;;9.83;53.74
78121;BME280;67585;44.802;10.332;2023-11-19T01:13:59;101642.78;;;9.70;54.04
78121;BME280;67585;44.802;10.332;2023-11-19T01:16:26;101636.69;;;9.93;54.23
78121;BME280;67585;44.802;10.332;2023-11-19T01:18:54;101629.94;;;9.72;54.05
78121;BME280;67585;44.802;10.332;2023-11-19T01:21:19;101628.09;;;9.84;53.50
78121;BME280;67585;44.802;10.332;2023-11-19T01:23:45;101630.94;;;9.90;52.84
78121;BME280;67585;44.802;10.332;2023-11-19T01:26:11;101619.44;;;9.82;52.49
78121;BME280;67585;44.802;10.332;2023-11-19T01:28:38;101628.19;;;9.78;53.40
78121;BME280;67585;44.802;10.332;2023-11-19T01:31:05;101596.09;;;9.65;53.22
78121;BME280;67585;44.802;10.332;2023-11-19T01:33:33;101614.94;;;9.65;53.55
78121;BME280;67585;44.802;10.332;2023-11-19T01:35:59;101589.44;;;9.67;52.62
78121;BME280;67585;44.802;10.332;2023-11-19T01:38:24;101603.84;;;9.73;51.87
78121;BME280;67585;44.802;10.332;2023-11-19T01:40:50;101601.16;;;9.73;52.35
78121;BME280;67585;44.802;10.332;2023-11-19T01:43:38;101603.28;;;9.82;52.89
78121;BME280;67585;44.802;10.332;2023-11-19T01:46:05;101592.41;;;9.77;53.19
78121;BME280;67585;44.802;10.332;2023-11-19T01:48:34;101600.88;;;9.62;53.55
78121;BME280;67585;44.802;10.332;2023-11-19T01:51:02;101572.94;;;9.63;53.32
78121;BME280;67585;44.802;10.332;2023-11-19T01:53:29;101574.53;;;9.83;52.31
78121;BME280;67585;44.802;10.332;2023-11-19T01:55:56;101580.25;;;9.87;52.48
78121;BME280;67585;44.802;10.332;2023-11-19T01:58:22;101582.16;;;9.86;51.93
78121;BME280;67585;44.802;10.332;2023-11-19T02:00:48;101570.75;;;9.72;51.90
78121;BME280;67585;44.802;10.332;2023-11-19T02:03:14;101586.34;;;9.82;52.41
78121;BME280;67585;44.802;10.332;2023-11-19T02:05:40;101567.47;;;9.70;52.30
78121;BME280;67585;44.802;10.332;2023-11-19T02:08:05;101581.38;;;9.67;52.71
78121;BME280;67585;44.802;10.332;2023-11-19T02:10:31;101549.09;;;9.67;51.94
78121;BME280;67585;44.802;10.332;2023-11-19T02:12:57;101571.34;;;9.74;52.47
78121;BME280;67585;44.802;10.332;2023-11-19T02:15:23;101571.84;;;9.95;52.57
78121;BME280;67585;44.802;10.332;2023-11-19T02:17:50;101562.34;;;9.80;52.51
78121;BME280;67585;44.802;10.332;2023-11-19T02:20:16;101549.22;;;9.72;52.96
78121;BME280;67585;44.802;10.332;2023-11-19T02:22:42;101533.28;;;9.59;52.91
78121;BME280;67585;44.802;10.332;2023-11-19T02:25:18;101561.84;;;9.41;53.11
78121;BME280;67585;44.802;10.332;2023-11-19T02:27:58;101551.88;;;9.60;53.49
78121;BME280;67585;44.802;10.332;2023-11-19T02:30:24;101533.00;;;9.37;53.64
78121;BME280;67585;44.802;10.332;2023-11-19T02:32:57;101541.31;;;9.47;53.93
78121;BME280;67585;44.802;10.332;2023-11-19T02:35:24;101542.94;;;9.48;54.20
78121;BME280;67585;44.802;10.332;2023-11-19T02:37:49;101537.66;;;9.41;54.01
78121;BME280;67585;44.802;10.332;2023-11-19T02:40:15;101513.44;;;9.30;54.32
78121;BME280;67585;44.802;10.332;2023-11-19T02:42:40;101500.09;;;9.23;54.71
78121;BME280;67585;44.802;10.332;2023-11-19T02:45:07;101515.72;;;9.45;53.49
78121;BME280;67585;44.802;10.332;2023-11-19T02:47:35;101508.75;;;9.25;54.28
78121;BME280;67585;44.802;10.332;2023-11-19T02:50:01;101497.06;;;9.31;54.06
78121;BME280;67585;44.802;10.332;2023-11-19T02:52:27;101463.03;;;8.95;54.98
78121;BME280;67585;44.802;10.332;2023-11-19T02:54:52;101497.75;;;8.96;55.43
78121;BME280;67585;44.802;10.332;2023-11-19T02:57:17;101491.75;;;9.13;55.43
78121;BME280;67585;44.802;10.332;2023-11-19T02:59:46;101490.22;;;9.17;55.08
78121;BME280;67585;44.802;10.332;2023-11-19T03:02:11;101489.78;;;9.20;55.00
78121;BME280;67585;44.802;10.332;2023-11-19T03:04:40;101500.19;;;8.98;55.85
78121;BME280;67585;44.802;10.332;2023-11-19T03:07:06;101493.25;;;9.09;55.11
78121;BME280;67585;44.802;10.332;2023-11-19T03:09:32;101488.00;;;9.14;55.40
78121;BME280;67585;44.802;10.332;2023-11-19T03:11:59;101486.47;;;9.06;54.95
78121;BME280;67585;44.802;10.332;2023-11-19T03:14:24;101487.78;;;9.15;55.87
78121;BME280;67585;44.802;10.332;2023-11-19T03:16:50;101489.88;;;9.13;55.06
78121;BME280;67585;44.802;10.332;2023-11-19T03:19:16;101481.16;;;8.99;55.19
78121;BME280;67585;44.802;10.332;2023-11-19T03:21:41;101440.75;;;9.06;55.09
78121;BME280;67585;44.802;10.332;2023-11-19T03:24:06;101473.28;;;9.16;55.19
78121;BME280;67585;44.802;10.332;2023-11-19T03:26:33;101460.00;;;9.33;54.52
78121;BME280;67585;44.802;10.332;2023-11-19T03:28:59;101473.97;;;9.12;54.85
78121;BME280;67585;44.802;10.332;2023-11-19T03:31:24;101470.53;;;9.05;54.83
78121;BME280;67585;44.802;10.332;2023-11-19T03:33:50;101470.63;;;8.98;55.31
78121;BME280;67585;44.802;10.332;2023-11-19T03:36:15;101480.88;;;8.89;55.14
78121;BME280;67585;44.802;10.332;2023-11-19T03:38:41;101476.63;;;9.30;55.23
78121;BME280;67585;44.802;10.332;2023-11-19T03:41:16;101465.69;;;9.13;54.52
78121;BME280;67585;44.802;10.332;2023-11-19T03:43:42;101494.28;;;9.38;54.49
78121;BME280;67585;44.802;10.332;2023-11-19T03:48:43;101465.78;;;9.07;55.81
78121;BME280;67585;44.802;10.332;2023-11-19T03:51:08;101474.38;;;9.27;54.39
78121;BME280;67585;44.802;10.332;2023-11-19T03:53:34;101473.31;;;9.28;55.22
78121;BME280;67585;44.802;10.332;2023-11-19T03:56:00;101496.94;;;9.26;55.22
78121;BME280;67585;44.802;10.332;2023-11-19T03:58:26;101475.09;;;9.34;54.40
78121;BME280;67585;44.802;10.332;2023-11-19T04:00:51;101481.19;;;9.30;54.17
78121;BME280;67585;44.802;10.332;2023-11-19T04:03:17;101485.16;;;9.27;53.98
78121;BME280;67585;44.802;10.332;2023-11-19T04:05:44;101452.72;;;9.22;54.47
78121;BME280;67585;44.802;10.332;2023-11-19T04:08:10;101488.31;;;9.36;54.64
78121;BME280;67585;44.802;10.332;2023-11-19T04:10:35;101465.81;;;9.18;54.34
78121;BME280;67585;44.802;10.332;2023-11-19T04:13:01;101487.13;;;9.32;54.66
78121;BME280;67585;44.802;10.332;2023-11-19T04:15:26;101492.75;;;9.30;54.33
78121;BME280;67585;44.802;10.332;2023-11-19T04:17:51;101476.91;;;9.22;54.47
78121;BME280;67585;44.802;10.332;2023-11-19T04:20:17;101487.19;;;9.13;54.84
78121;BME280;67585;44.802;10.332;2023-11-19T04:22:42;101461.88;;;8.91;54.59
78121;BME280;67585;44.802;10.332;2023-11-19T04:25:08;101489.97;;;8.88;56.19
78121;BME280;67585;44.802;10.332;2023-11-19T04:27:34;101431.69;;;8.40;56.41
78121;BME280;67585;44.802;10.332;2023-11-19T04:29:59;101488.03;;;8.95;55.86
78121;BME280;67585;44.802;10.332;2023-11-19T04:32:26;101462.56;;;8.98;55.94
78121;BME280;67585;44.802;10.332;2023-11-19T04:34:52;101483.69;;;9.13;56.44
78121;BME280;67585;44.802;10.332;2023-11-19T04:37:17;101468.88;;;8.92;55.41
78121;BME280;67585;44.802;10.332;2023-11-19T04:39:46;101492.59;;;8.95;56.84
78121;BME280;67585;44.802;10.332;2023-11-19T04:42:11;101468.19;;;8.78;56.40
78121;BME280;67585;44.802;10.332;2023-11-19T04:44:37;101474.84;;;8.94;56.69
78121;BME280;67585;44.802;10.332;2023-11-19T04:47:03;101492.09;;;8.86;56.42
78121;BME280;67585;44.802;10.332;2023-11-19T04:49:28;101461.66;;;8.74;56.43
78121;BME280;67585;44.802;10.332;2023-11-19T04:51:55;101474.84;;;8.75;56.67
78121;BME280;67585;44.802;10.332;2023-11-19T04:54:21;101448.91;;;8.69;56.82
78121;BME280;67585;44.802;10.332;2023-11-19T04:56:46;101461.06;;;9.02;55.25
78121;BME280;67585;44.802;10.332;2023-11-19T04:59:14;101450.56;;;9.01;55.67
78121;BME280;67585;44.802;10.332;2023-11-19T05:01:40;101446.31;;;8.93;55.98
78121;BME280;67585;44.802;10.332;2023-11-19T05:04:07;101455.03;;;8.58;57.15
78121;BME280;67585;44.802;10.332;2023-11-19T05:06:32;101435.03;;;8.54;56.08
78121;BME280;67585;44.802;10.332;2023-11-19T05:08:59;101432.28;;;8.61;56.29
78121;BME280;67585;44.802;10.332;2023-11-19T05:11:36;101438.22;;;8.81;56.17
78121;BME280;67585;44.802;10.332;2023-11-19T05:14:02;101432.28;;;8.61;57.23
78121;BME280;67585;44.802;10.332;2023-11-19T05:16:29;101433.59;;;8.70;57.64
78121;BME280;67585;44.802;10.332;2023-11-19T05:18:55;101414.75;;;8.58;56.49
78121;BME280;67585;44.802;10.332;2023-11-19T05:21:20;101433.69;;;8.63;57.29
78121;BME280;67585;44.802;10.332;2023-11-19T05:23:46;101432.50;;;8.41;57.71
78121;BME280;67585;44.802;10.332;2023-11-19T05:26:22;101424.72;;;8.69;56.77
78121;BME280;67585;44.802;10.332;2023-11-19T05:28:49;101391.84;;;8.55;57.47
78121;BME280;67585;44.802;10.332;2023-11-19T05:31:16;101426.28;;;8.59;57.95
78121;BME280;67585;44.802;10.332;2023-11-19T05:33:41;101406.75;;;8.51;57.37
78121;BME280;67585;44.802;10.332;2023-11-19T05:36:07;101401.09;;;8.60;57.10
78121;BME280;67585;44.802;10.332;2023-11-19T05:38:36;101397.75;;;8.64;56.76
78121;BME280;67585;44.802;10.332;2023-11-19T05:41:02;101396.31;;;8.62;56.97
78121;BME280;67585;44.802;10.332;2023-11-19T05:43:27;101392.53;;;8.51;57.28
78121;BME280;67585;44.802;10.332;2023-11-19T05:45:52;101427.44;;;8.51;57.41
78121;BME280;67585;44.802;10.332;2023-11-19T05:48:18;101419.97;;;8.71;57.29
78121;BME280;67585;44.802;10.332;2023-11-19T05:50:43;101415.25;;;8.67;57.48
78121;BME280;67585;44.802;10.332;2023-11-19T05:53:09;101423.09;;;8.31;57.86
78121;BME280;67585;44.802;10.332;2023-11-19T05:55:38;101406.09;;;8.56;57.71
78121;BME280;67585;44.802;10.332;2023-11-19T05:58:26;101421.97;;;8.58;58.15
78121;BME280;67585;44.802;10.332;2023-11-19T06:00:54;101384.06;;;8.66;57.97
78121;BME280;67585;44.802;10.332;2023-11-19T06:03:20;101400.91;;;8.73;57.32
78121;BME280;67585;44.802;10.332;2023-11-19T06:05:47;101415.13;;;8.43;57.71
78121;BME280;67585;44.802;10.332;2023-11-19T06:08:12;101398.16;;;8.61;57.53
78121;BME280;67585;44.802;10.332;2023-11-19T06:10:41;101376.31;;;8.39;58.12
78121;BME280;67585;44.802;10.332;2023-11-19T06:13:07;101398.59;;;8.76;58.06
78121;BME280;67585;44.802;10.332;2023-11-19T06:15:35;101376.78;;;8.54;57.61
78121;BME280;67585;44.802;10.332;2023-11-19T06:18:02;101388.88;;;8.45;58.39
78121;BME280;67585;44.802;10.332;2023-11-19T06:20:29;101409.22;;;8.53;58.45
78121;BME280;67585;44.802;10.332;2023-11-19T06:22:55;101398.25;;;8.36;58.55
78121;BME280;67585;44.802;10.332;2023-11-19T06:25:22;101406.03;;;8.44;58.92
78121;BME280;67585;44.802;10.332;2023-11-19T06:27:49;101423.19;;;8.62;58.09
78121;BME280;67585;44.802;10.332;2023-11-19T06:30:14;101423.13;;;8.80;59.09
78121;BME280;67585;44.802;10.332;2023-11-19T06:32:39;101418.69;;;8.74;59.10
78121;BME280;67585;44.802;10.332;2023-11-19T06:35:05;101415.38;;;9.02;57.70
78121;BME280;67585;44.802;10.332;2023-11-19T06:37:30;101413.00;;;8.64;58.75
78121;BME280;67585;44.802;10.332;2023-11-19T06:39:56;101401.94;;;8.42;58.82
78121;BME280;67585;44.802;10.332;2023-11-19T06:42:21;101434.06;;;8.97;57.71
78121;BME280;67585;44.802;10.332;2023-11-19T06:44:47;101425.69;;;8.56;58.72
78121;BME280;67585;44.802;10.332;2023-11-19T06:47:12;101420.50;;;8.62;58.88
78121;BME280;67585;44.802;10.332;2023-11-19T06:49:37;101393.69;;;8.37;58.67
78121;BME280;67585;44.802;10.332;2023-11-19T06:52:03;101409.03;;;8.66;58.88
78121;BME280;67585;44.802;10.332;2023-11-19T06:54:29;101420.03;;;8.65;58.30
78121;BME280;67585;44.802;10.332;2023-11-19T06:56:55;101421.38;;;8.74;58.19
78121;BME280;67585;44.802;10.332;2023-11-19T06:59:22;101422.19;;;8.56;58.90
78121;BME280;67585;44.802;10.332;2023-11-19T07:01:48;101421.13;;;8.39;59.03
78121;BME280;67585;44.802;10.332;2023-11-19T07:04:14;101414.47;;;8.48;59.12
78121;BME280;67585;44.802;10.332;2023-11-19T07:06:39;101438.47;;;8.43;59.63
78121;BME280;67585;44.802;10.332;2023-11-19T07:09:08;101418.25;;;8.59;59.12
78121;BME280;67585;44.802;10.332;2023-11-19T07:11:38;101430.19;;;8.44;59.44
78121;BME280;67585;44.802;10.332;2023-11-19T07:14:04;101415.69;;;8.27;59.88
78121;BME280;67585;44.802;10.332;2023-11-19T07:16:30;101432.06;;;8.62;59.13
78121;BME280;67585;44.802;10.332;2023-11-19T07:18:56;101437.63;;;8.79;58.93
78121;BME280;67585;44.802;10.332;2023-11-19T07:21:21;101424.72;;;8.69;58.98
78121;BME280;67585;44.802;10.332;2023-11-19T07:23:47;101437.44;;;8.62;58.93
78121;BME280;67585;44.802;10.332;2023-11-19T07:26:12;101447.50;;;8.48;58.80
78121;BME280;67585;44.802;10.332;2023-11-19T07:28:37;101410.13;;;8.47;58.57
78121;BME280;67585;44.802;10.332;2023-11-19T07:31:04;101459.59;;;8.88;58.05
78121;BME280;67585;44.802;10.332;2023-11-19T07:33:32;101453.00;;;8.72;57.62
78121;BME280;67585;44.802;10.332;2023-11-19T07:35:58;101450.38;;;8.84;57.62
78121;BME280;67585;44.802;10.332;2023-11-19T07:38:23;101457.50;;;9.08;57.26
78121;BME280;67585;44.802;10.332;2023-11-19T07:40:48;101443.72;;;8.86;56.52
78121;BME280;67585;44.802;10.332;2023-11-19T07:43:14;101455.84;;;9.07;55.93
78121;BME280;67585;44.802;10.332;2023-11-19T07:45:39;101459.25;;;9.14;55.04
78121;BME280;67585;44.802;10.332;2023-11-19T07:48:04;101430.28;;;9.16;54.58
78121;BME280;67585;44.802;10.332;2023-11-19T07:50:31;101455.22;;;9.35;54.53
78121;BME280;67585;44.802;10.332;2023-11-19T07:52:57;101463.63;;;9.27;54.30
78121;BME280;67585;44.802;10.332;2023-11-19T07:55:22;101447.41;;;9.46;54.37
78121;BME280;67585;44.802;10.332;2023-11-19T07:57:47;101448.88;;;9.72;53.52
78121;BME280;67585;44.802;10.332;2023-11-19T08:00:14;101447.47;;;9.93;52.09
78121;BME280;67585;44.802;10.332;2023-11-19T08:02:40;101463.38;;;10.06;51.12
78121;BME280;67585;44.802;10.332;2023-11-19T08:05:05;101467.50;;;10.32;50.56
78121;BME280;67585;44.802;10.332;2023-11-19T08:07:31;101439.78;;;10.60;49.56
78121;BME280;67585;44.802;10.332;2023-11-19T08:09:56;101459.75;;;10.88;49.69
78121;BME280;67585;44.802;10.332;2023-11-19T08:12:22;101435.63;;;10.81;49.60
78121;BME280;67585;44.802;10.332;2023-11-19T08:14:48;101476.06;;;11.39;48.81
78121;BME280;67585;44.802;10.332;2023-11-19T08:17:14;101474.25;;;11.44;47.59
78121;BME280;67585;44.802;10.332;2023-11-19T08:19:39;101433.53;;;11.29;47.41
78121;BME280;67585;44.802;10.332;2023-11-19T08:22:05;101464.06;;;11.80;46.57
78121;BME280;67585;44.802;10.332;2023-11-19T08:24:30;101462.50;;;12.01;46.45
78121;BME280;67585;44.802;10.332;2023-11-19T08:26:55;101452.03;;;12.05;45.47
78121;BME280;67585;44.802;10.332;2023-11-19T08:29:21;101448.63;;;12.31;44.81
78121;BME280;67585;44.802;10.332;2023-11-19T08:31:46;101469.56;;;12.41;44.31
78121;BME280;67585;44.802;10.332;2023-11-19T08:34:12;101461.28;;;12.48;44.46
78121;BME280;67585;44.802;10.332;2023-11-19T08:36:37;101436.78;;;12.81;43.32
78121;BME280;67585;44.802;10.332;2023-11-19T08:39:03;101453.03;;;13.09;43.68
78121;BME280;67585;44.802;10.332;2023-11-19T08:41:28;101462.88;;;12.93;42.85
78121;BME280;67585;44.802;10.332;2023-11-19T08:43:54;101439.06;;;12.90;43.37
78121;BME280;67585;44.802;10.332;2023-11-19T08:46:19;101446.06;;;13.40;41.63
78121;BME280;67585;44.802;10.332;2023-11-19T08:48:45;101451.34;;;13.57;41.75
78121;BME280;67585;44.802;10.332;2023-11-19T08:51:12;101422.56;;;13.45;41.83
78121;BME280;67585;44.802;10.332;2023-11-19T08:53:38;101436.28;;;13.71;41.30
78121;BME280;67585;44.802;10.332;2023-11-19T08:56:03;101447.63;;;13.68;41.36
78121;BME280;67585;44.802;10.332;2023-11-19T08:58:29;101420.44;;;13.20;41.73
78121;BME280;67585;44.802;10.332;2023-11-19T09:00:55;101454.28;;;13.50;41.90
78121;BME280;67585;44.802;10.332;2023-11-19T09:03:21;101445.84;;;13.79;42.64
78121;BME280;67585;44.802;10.332;2023-11-19T09:05:46;101450.47;;;13.51;41.72
78121;BME280;67585;44.802;10.332;2023-11-19T09:08:12;101464.88;;;13.89;42.10
78121;BME280;67585;44.802;10.332;2023-11-19T09:10:37;101472.38;;;14.67;41.49
78121;BME280;67585;44.802;10.332;2023-11-19T09:13:03;101483.38;;;15.33;41.88
78121;BME280;67585;44.802;10.332;2023-11-19T09:15:29;101449.44;;;15.36;39.90
78121;BME280;67585;44.802;10.332;2023-11-19T09:17:54;101479.28;;;15.15;40.32
78121;BME280;67585;44.802;10.332;2023-11-19T09:20:20;101466.00;;;15.19;39.72
78121;BME280;67585;44.802;10.332;2023-11-19T09:22:45;101470.59;;;15.13;39.76
78121;BME280;67585;44.802;10.332;2023-11-19T09:25:11;101460.31;;;15.21;39.38
78121;BME280;67585;44.802;10.332;2023-11-19T09:27:37;101479.59;;;15.55;40.11
78121;BME280;67585;44.802;10.332;2023-11-19T09:30:04;101479.91;;;15.69;39.81
78121;BME280;67585;44.802;10.332;2023-11-19T09:32:30;101472.56;;;15.64;38.52
78121;BME280;67585;44.802;10.332;2023-11-19T09:34:55;101479.13;;;14.59;40.11
78121;BME280;67585;44.802;10.332;2023-11-19T09:37:21;101456.88;;;14.57;39.50
78121;BME280;67585;44.802;10.332;2023-11-19T09:39:46;101466.56;;;15.31;38.83
78121;BME280;67585;44.802;10.332;2023-11-19T09:42:12;101446.47;;;15.48;37.88
78121;BME280;67585;44.802;10.332;2023-11-19T09:44:38;101470.66;;;15.65;38.64
78121;BME280;67585;44.802;10.332;2023-11-19T09:47:04;101471.47;;;15.65;38.13
78121;BME280;67585;44.802;10.332;2023-11-19T09:49:30;101473.41;;;15.90;38.17
78121;BME280;67585;44.802;10.332;2023-11-19T09:51:56;101423.69;;;15.49;38.43
78121;BME280;67585;44.802;10.332;2023-11-19T09:54:21;101410.63;;;15.20;39.14
78121;BME280;67585;44.802;10.332;2023-11-19T09:56:47;101460.91;;;15.79;38.10
78121;BME280;67585;44.802;10.332;2023-11-19T09:59:13;101466.03;;;15.50;38.80
78121;BME280;67585;44.802;10.332;2023-11-19T10:01:39;101457.84;;;15.24;38.86
78121;BME280;67585;44.802;10.332;2023-11-19T10:04:06;101443.69;;;14.96;39.50
78121;BME280;67585;44.802;10.332;2023-11-19T10:06:32;101453.25;;;15.30;39.16
78121;BME280;67585;44.802;10.332;2023-11-19T10:08:57;101457.06;;;15.44;39.40
78121;BME280;67585;44.802;10.332;2023-11-19T10:11:24;101443.22;;;15.51;38.56
78121;BME280;67585;44.802;10.332;2023-11-19T10:13:52;101444.88;;;15.42;39.52
78121;BME280;67585;44.802;10.332;2023-11-19T10:16:18;101447.03;;;15.50;39.08
78121;BME280;67585;44.802;10.332;2023-11-19T10:18:48;101457.63;;;15.62;39.41
78121;BME280;67585;44.802;10.332;2023-11-19T10:21:17;101457.00;;;16.26;38.07
78121;BME280;67585;44.802;10.332;2023-11-19T10:23:53;101456.78;;;15.97;38.21
78121;BME280;67585;44.802;10.332;2023-11-19T10:26:19;101448.66;;;15.46;39.80
78121;BME280;67585;44.802;10.332;2023-11-19T10:28:46;101443.22;;;15.61;39.83
78121;BME280;67585;44.802;10.332;2023-11-19T10:31:16;101446.19;;;15.34;39.50
78121;BME280;67585;44.802;10.332;2023-11-19T10:33:42;101440.25;;;15.37;39.70
78121;BME280;67585;44.802;10.332;2023-11-19T10:36:11;101434.81;;;15.27;40.69
78121;BME280;67585;44.802;10.332;2023-11-19T10:38:37;101431.00;;;15.48;39.80
78121;BME280;67585;44.802;10.332;2023-11-19T10:41:03;101423.38;;;15.60;39.60
78121;BME280;67585;44.802;10.332;2023-11-19T10:43:30;101422.84;;;15.48;40.02
78121;BME280;67585;44.802;10.332;2023-11-19T10:46:12;101422.31;;;15.31;39.53
78121;BME280;67585;44.802;10.332;2023-11-19T10:48:38;101416.31;;;15.08;40.12
78121;BME280;67585;44.802;10.332;2023-11-19T10:51:05;101414.72;;;15.07;40.30
78121;BME280;67585;44.802;10.332;2023-11-19T10:53:37;101409.53;;;15.06;40.69
78121;BME280;67585;44.802;10.332;2023-11-19T10:56:06;101413.34;;;15.15;39.87
78121;BME280;67585;44.802;10.332;2023-11-19T10:58:35;101388.63;;;14.91;40.04
78121;BME280;67585;44.802;10.332;2023-11-19T11:01:09;101395.41;;;15.04;41.14
78121;BME280;67585;44.802;10.332;2023-11-19T11:03:40;101372.34;;;15.16;41.13
78121;BME280;67585;44.802;10.332;2023-11-19T11:06:06;101384.84;;;15.23;40.91
78121;BME280;67585;44.802;10.332;2023-11-19T11:08:31;101374.53;;;15.30;40.51
78121;BME280;67585;44.802;10.332;2023-11-19T11:11:01;101370.47;;;15.37;40.26
78121;BME280;67585;44.802;10.332;2023-11-19T11:13:27;101367.50;;;15.39;39.79
78121;BME280;67585;44.802;10.332;2023-11-19T11:15:55;101375.63;;;15.44;39.34
78121;BME280;67585;44.802;10.332;2023-11-19T11:18:23;101344.63;;;15.60;42.04
78121;BME280;67585;44.802;10.332;2023-11-19T11:20:52;101356.59;;;15.70;39.44
78121;BME280;67585;44.802;10.332;2023-11-19T11:26:35;101372.25;;;16.03;40.59
78121;BME280;67585;44.802;10.332;2023-11-19T11:29:31;101371.19;;;16.05;39.52
78121;BME280;67585;44.802;10.332;2023-11-19T11:32:22;101351.34;;;15.99;39.59
78121;BME280;67585;44.802;10.332;2023-11-19T11:40:17;101329.41;;;15.80;40.43
78121;BME280;67585;44.802;10.332;2023-11-19T11:42:46;101335.06;;;15.94;40.37
78121;BME280;67585;44.802;10.332;2023-11-19T11:45:13;101332.09;;;15.95;40.04
78121;BME280;67585;44.802;10.332;2023-11-19T11:50:07;101331.31;;;15.64;40.30
78121;BME280;67585;44.802;10.332;2023-11-19T11:52:33;101324.00;;;15.59;41.20
78121;BME280;67585;44.802;10.332;2023-11-19T11:55:04;101322.25;;;15.99;40.17
78121;BME280;67585;44.802;10.332;2023-11-19T11:57:36;101299.41;;;16.06;39.66
78121;BME280;67585;44.802;10.332;2023-11-19T12:00:02;101294.75;;;16.61;38.59
78121;BME280;67585;44.802;10.332;2023-11-19T12:02:30;101300.59;;;16.83;38.82
78121;BME280;67585;44.802;10.332;2023-11-19T12:04:56;101305.88;;;16.64;39.39
78121;BME280;67585;44.802;10.332;2023-11-19T12:07:23;101290.03;;;16.32;39.48
78121;BME280;67585;44.802;10.332;2023-11-19T12:09:52;101277.81;;;16.30;39.57
78121;BME280;67585;44.802;10.332;2023-11-19T12:12:31;101280.81;;;16.28;39.94
78121;BME280;67585;44.802;10.332;2023-11-19T12:15:07;101290.25;;;16.46;39.95
78121;BME280;67585;44.802;10.332;2023-11-19T12:17:37;101274.16;;;16.05;40.37
78121;BME280;67585;44.802;10.332;2023-11-19T12:20:06;101298.03;;;16.13;40.25
78121;BME280;67585;44.802;10.332;2023-11-19T12:22:40;101278.97;;;16.18;40.59
78121;BME280;67585;44.802;10.332;2023-11-19T12:25:08;101262.03;;;16.32;40.81
78121;BME280;67585;44.802;10.332;2023-11-19T12:27:54;101280.78;;;16.33;40.25
78121;BME280;67585;44.802;10.332;2023-11-19T12:30:23;101262.13;;;16.16;40.60
78121;BME280;67585;44.802;10.332;2023-11-19T12:32:54;101260.00;;;16.08;41.37
78121;BME280;67585;44.802;10.332;2023-11-19T12:35:19;101275.06;;;16.35;40.83
78121;BME280;67585;44.802;10.332;2023-11-19T12:37:49;101272.84;;;16.42;41.35
78121;BME280;67585;44.802;10.332;2023-11-19T12:40:16;101270.16;;;16.37;41.20
78121;BME280;67585;44.802;10.332;2023-11-19T12:42:46;101267.28;;;16.18;41.94
78121;BME280;67585;44.802;10.332;2023-11-19T12:45:12;101241.13;;;15.67;42.46
78121;BME280;67585;44.802;10.332;2023-11-19T12:47:38;101257.31;;;16.03;42.65
78121;BME280;67585;44.802;10.332;2023-11-19T12:50:05;101244.00;;;16.01;43.31
78121;BME280;67585;44.802;10.332;2023-11-19T12:52:32;101241.06;;;15.93;43.88
78121;BME280;67585;44.802;10.332;2023-11-19T12:54:57;101237.06;;;15.70;43.77
78121;BME280;67585;44.802;10.332;2023-11-19T12:57:42;101230.09;;;15.38;44.85